createdAt,value
2023-01-26T00:01:00.921Z,2.38
2023-01-26T00:04:03.854Z,2.46
2023-01-26T00:07:06.618Z,2.40
2023-01-26T00:10:10.617Z,2.38
2023-01-26T00:13:15.291Z,2.32
2023-01-26T00:16:18.816Z,2.43
2023-01-26T00:19:21.774Z,2.47
2023-01-26T00:22:25.944Z,2.50
2023-01-26T00:25:28.694Z,2.49
2023-01-26T00:28:33.216Z,2.48
2023-01-26T00:31:36.158Z,2.40
2023-01-26T00:34:39.370Z,2.31
2023-01-26T00:37:42.524Z,2.37
2023-01-26T00:40:45.419Z,2.33
2023-01-26T00:43:50.957Z,2.22
2023-01-26T00:46:54.000Z,2.24
2023-01-26T00:49:56.921Z,2.21
2023-01-26T00:52:59.764Z,2.11
2023-01-26T00:56:02.883Z,2.11
2023-01-26T00:59:07.826Z,2.20
2023-01-26T01:02:10.839Z,2.22
2023-01-26T01:05:13.918Z,2.30
2023-01-26T01:08:16.830Z,2.30
2023-01-26T01:11:19.776Z,2.27
2023-01-26T01:14:24.067Z,2.24
2023-01-26T01:17:27.006Z,2.16
2023-01-26T01:20:29.967Z,2.14
2023-01-26T01:23:32.829Z,2.07
2023-01-26T01:26:35.588Z,2.02
2023-01-26T01:29:40.147Z,2.01
2023-01-26T01:32:43.227Z,2.01
2023-01-26T01:35:46.091Z,2.04
2023-01-26T01:38:49.873Z,2.05
2023-01-26T01:41:52.592Z,2.13
2023-01-26T01:45:39.073Z,2.20
2023-01-26T01:48:51.058Z,2.19
2023-01-26T01:51:59.034Z,2.13
2023-01-26T01:55:07.875Z,2.12
2023-01-26T01:58:11.090Z,2.14
2023-01-26T02:01:16.246Z,2.17
2023-01-26T02:04:20.567Z,2.15
2023-01-26T02:07:23.583Z,2.09
2023-01-26T02:10:26.820Z,2.19
2023-01-26T02:13:32.865Z,2.21
2023-01-26T02:16:39.835Z,2.18
2023-01-26T02:19:52.239Z,2.24
2023-01-26T02:23:01.648Z,2.24
2023-01-26T02:26:09.222Z,2.27
2023-01-26T02:29:12.858Z,2.28
2023-01-26T02:32:16.109Z,2.14
2023-01-26T02:35:18.895Z,2.02
2023-01-26T02:38:24.417Z,1.93
2023-01-26T02:41:46.297Z,1.86
2023-01-26T02:44:49.060Z,1.81
2023-01-26T02:47:52.229Z,1.78
2023-01-26T02:50:53.954Z,1.80
2023-01-26T02:53:56.606Z,1.92
2023-01-26T02:57:00.102Z,2.02
2023-01-26T03:00:02.963Z,2.00
2023-01-26T03:03:15.396Z,1.99
2023-01-26T03:06:18.483Z,2.05
2023-01-26T03:09:21.310Z,2.05
2023-01-26T03:12:25.811Z,2.02
2023-01-26T03:15:43.894Z,2.07
2023-01-26T03:19:12.653Z,2.09
2023-01-26T03:22:32.846Z,2.06
2023-01-26T03:25:53.665Z,2.04
2023-01-26T03:28:58.013Z,2.01
2023-01-26T03:32:00.944Z,2.10
2023-01-26T03:35:04.088Z,2.07
2023-01-26T03:38:06.823Z,2.02
2023-01-26T03:41:27.095Z,1.96
2023-01-26T03:44:48.782Z,1.97
2023-01-26T03:48:08.954Z,1.89
2023-01-26T03:51:29.745Z,1.98
2023-01-26T03:54:50.340Z,1.90
2023-01-26T03:57:53.301Z,1.83
2023-01-26T04:00:58.645Z,1.79
2023-01-26T04:04:18.887Z,1.72
2023-01-26T04:07:39.273Z,1.81
2023-01-26T04:10:42.472Z,1.82
2023-01-26T04:14:03.001Z,1.79
2023-01-26T04:17:25.500Z,1.87
2023-01-26T04:20:45.928Z,1.93
2023-01-26T04:23:48.751Z,1.90
2023-01-26T04:26:51.466Z,1.91
2023-01-26T04:29:54.382Z,1.88
2023-01-26T04:32:59.452Z,1.91
2023-01-26T04:36:05.020Z,1.87
2023-01-26T04:39:07.806Z,1.81
2023-01-26T04:42:10.469Z,1.87
2023-01-26T04:45:13.483Z,1.88
2023-01-26T04:48:17.621Z,1.96
2023-01-26T04:51:22.019Z,1.82
2023-01-26T04:54:24.742Z,1.85
2023-01-26T04:57:27.531Z,1.95
2023-01-26T05:00:30.653Z,1.88
2023-01-26T05:03:35.099Z,1.81
2023-01-26T05:06:38.289Z,1.76
2023-01-26T05:09:41.078Z,1.73
2023-01-26T05:12:44.195Z,1.83
2023-01-26T05:15:47.797Z,1.71
2023-01-26T05:18:51.957Z,1.68
2023-01-26T05:21:55.035Z,1.70
2023-01-26T05:24:57.743Z,1.65
2023-01-26T05:28:00.596Z,1.64
2023-01-26T05:31:03.419Z,1.62
2023-01-26T05:34:07.828Z,1.74
2023-01-26T05:37:12.095Z,1.80
2023-01-26T05:40:17.341Z,1.72
2023-01-26T05:43:20.035Z,1.71
2023-01-26T05:46:22.957Z,1.72
2023-01-26T05:49:27.124Z,1.66
2023-01-26T05:52:29.916Z,1.62
2023-01-26T05:55:32.659Z,1.69
2023-01-26T05:58:35.418Z,1.71
2023-01-26T06:01:39.223Z,1.83
2023-01-26T06:04:43.344Z,1.73
2023-01-26T06:07:46.141Z,1.71
2023-01-26T06:10:49.008Z,1.65
2023-01-26T06:13:52.036Z,1.61
2023-01-26T06:16:56.644Z,1.63
2023-01-26T06:20:00.922Z,1.65
2023-01-26T06:23:03.708Z,1.66
2023-01-26T06:26:08.857Z,1.65
2023-01-26T06:29:14.676Z,1.66
2023-01-26T06:32:17.554Z,1.56
2023-01-26T06:35:21.828Z,1.61
2023-01-26T06:38:24.549Z,1.59
2023-01-26T06:41:27.873Z,1.56
2023-01-26T06:44:30.641Z,1.49
2023-01-26T06:47:35.905Z,1.58
2023-01-26T06:50:41.104Z,1.55
2023-01-26T06:53:45.236Z,1.57
2023-01-26T06:56:48.545Z,1.53
2023-01-26T06:59:51.521Z,1.50
2023-01-26T07:02:54.500Z,1.39
2023-01-26T07:05:58.697Z,1.43
2023-01-26T07:09:02.094Z,1.47
2023-01-26T07:12:05.114Z,1.46
2023-01-26T07:15:09.393Z,1.49
2023-01-26T07:18:12.870Z,1.55
2023-01-26T07:21:19.368Z,1.55
2023-01-26T07:24:22.370Z,1.57
2023-01-26T07:27:26.025Z,1.61
2023-01-26T07:30:29.202Z,1.69
2023-01-26T07:33:32.865Z,1.60
2023-01-26T07:36:36.978Z,1.61
2023-01-26T07:39:40.075Z,1.54
2023-01-26T07:42:42.931Z,1.53
2023-01-26T07:45:46.825Z,1.60
2023-01-26T07:48:49.730Z,1.64
2023-01-26T07:51:54.210Z,1.63
2023-01-26T07:54:57.110Z,1.66
2023-01-26T07:57:59.848Z,1.62
2023-01-26T08:01:07.008Z,1.60
2023-01-26T08:04:09.901Z,1.54
2023-01-26T08:07:14.467Z,1.57
2023-01-26T08:10:18.332Z,1.57
2023-01-26T08:13:34.429Z,1.56
2023-01-26T08:16:40.146Z,1.58
2023-01-26T08:19:42.961Z,1.55
2023-01-26T08:22:47.842Z,1.58
2023-01-26T08:25:50.575Z,1.57
2023-01-26T08:28:53.597Z,1.57
2023-01-26T08:31:56.472Z,1.60
2023-01-26T08:34:59.304Z,1.72
2023-01-26T08:38:03.520Z,1.68
2023-01-26T08:41:07.274Z,1.71
2023-01-26T08:44:11.072Z,1.65
2023-01-26T08:47:14.004Z,1.69
2023-01-26T08:50:16.916Z,1.71
2023-01-26T08:53:21.036Z,1.65
2023-01-26T08:56:23.926Z,1.67
2023-01-26T08:59:26.853Z,1.71
2023-01-26T09:02:29.819Z,1.71
2023-01-26T09:05:34.558Z,1.65
2023-01-26T09:08:39.132Z,1.71
2023-01-26T09:11:42.085Z,1.65
2023-01-26T09:14:44.822Z,1.65
2023-01-26T09:17:49.892Z,1.61
2023-01-26T09:20:53.680Z,1.68
2023-01-26T09:23:58.956Z,1.70
2023-01-26T09:27:02.044Z,1.79
2023-01-26T09:30:07.070Z,1.89
2023-01-26T09:33:10.172Z,1.78
2023-01-26T09:36:13.397Z,1.67
2023-01-26T09:39:17.800Z,1.74
2023-01-26T09:42:33.498Z,1.59
2023-01-26T09:45:42.675Z,1.56
2023-01-26T09:48:54.348Z,1.52
2023-01-26T09:52:06.223Z,1.60
2023-01-26T09:55:16.826Z,1.53
2023-01-26T09:58:32.520Z,1.53
2023-01-26T10:01:42.424Z,1.49
2023-01-26T10:04:52.016Z,1.58
2023-01-26T10:07:54.786Z,1.65
2023-01-26T10:11:02.068Z,1.57
2023-01-26T10:14:11.910Z,1.54
2023-01-26T10:17:20.829Z,1.58
2023-01-26T10:20:32.559Z,1.65
2023-01-26T10:23:36.966Z,1.69
2023-01-26T10:26:41.941Z,1.64
2023-01-26T10:29:44.907Z,1.59
2023-01-26T10:32:52.252Z,1.64
2023-01-26T10:35:55.700Z,1.71
2023-01-26T10:39:05.439Z,1.69
2023-01-26T10:42:19.909Z,1.67
2023-01-26T10:45:31.062Z,1.67
2023-01-26T10:48:34.504Z,1.74
2023-01-26T10:51:39.183Z,1.59
2023-01-26T10:54:43.975Z,1.74
2023-01-26T10:57:48.816Z,1.60
2023-01-26T11:00:56.869Z,1.50
2023-01-26T11:04:06.893Z,1.55
2023-01-26T11:07:27.232Z,1.48
2023-01-26T11:10:33.366Z,1.48
2023-01-26T11:13:38.620Z,1.48
2023-01-26T11:16:43.545Z,1.50
2023-01-26T11:20:08.477Z,1.50
2023-01-26T11:23:20.734Z,1.60
2023-01-26T11:27:01.107Z,1.55
2023-01-26T11:30:51.130Z,1.49
2023-01-26T11:34:05.201Z,1.55
2023-01-26T11:37:34.229Z,1.52
2023-01-26T11:40:48.774Z,1.54
2023-01-26T11:44:08.391Z,1.52
2023-01-26T11:47:29.578Z,1.53
2023-01-26T11:50:41.348Z,1.54
2023-01-26T11:54:16.282Z,1.57
2023-01-26T11:57:30.963Z,1.62
2023-01-26T12:00:41.484Z,1.69
2023-01-26T12:03:48.686Z,1.72
2023-01-26T12:06:56.416Z,1.74
2023-01-26T12:10:01.547Z,1.78
2023-01-26T12:13:12.434Z,1.81
2023-01-26T12:16:21.651Z,1.94
2023-01-26T12:19:44.905Z,1.89
2023-01-26T12:22:53.741Z,1.83
2023-01-26T12:26:00.565Z,1.77
2023-01-26T12:29:12.268Z,1.69
2023-01-26T12:32:17.155Z,1.56
2023-01-26T12:35:33.044Z,1.56
2023-01-26T12:38:48.376Z,1.57
2023-01-26T12:42:04.473Z,1.56
2023-01-26T12:45:14.363Z,1.50
2023-01-26T12:48:23.079Z,1.56
2023-01-26T12:51:32.024Z,1.58
2023-01-26T12:54:39.645Z,1.64
2023-01-26T12:57:49.019Z,1.66
2023-01-26T13:01:00.734Z,1.62
2023-01-26T13:04:08.078Z,1.65
2023-01-26T13:07:32.246Z,1.71
2023-01-26T13:10:50.925Z,1.62
2023-01-26T13:13:55.510Z,1.66
2023-01-26T13:16:59.599Z,1.64
2023-01-26T13:20:23.096Z,1.63
2023-01-26T13:23:44.399Z,1.52
2023-01-26T13:26:48.973Z,1.55
2023-01-26T13:29:56.489Z,1.59
2023-01-26T13:33:26.810Z,1.54
2023-01-26T13:36:35.136Z,1.52
2023-01-26T13:39:43.206Z,1.47
2023-01-26T13:42:56.703Z,1.44
2023-01-26T13:46:11.264Z,1.44
2023-01-26T13:49:25.963Z,1.55
2023-01-26T13:52:29.617Z,1.56
2023-01-26T13:55:34.999Z,1.49
2023-01-26T13:58:38.130Z,1.50
2023-01-26T14:01:46.052Z,1.59
2023-01-26T14:04:53.282Z,1.51
2023-01-26T14:07:57.155Z,1.52
2023-01-26T14:11:04.186Z,1.58
2023-01-26T14:14:08.268Z,1.62
2023-01-26T14:17:27.154Z,1.56
2023-01-26T14:20:32.243Z,1.58
2023-01-26T14:23:37.109Z,1.58
2023-01-26T14:26:42.545Z,1.61
2023-01-26T14:29:45.566Z,1.62
2023-01-26T14:32:48.927Z,1.65
2023-01-26T14:35:57.973Z,1.60
2023-01-26T14:39:01.088Z,1.54
2023-01-26T14:42:06.521Z,1.57
2023-01-26T14:45:14.340Z,1.55
2023-01-26T14:48:22.371Z,1.44
2023-01-26T14:51:28.229Z,1.49
2023-01-26T14:54:33.275Z,1.47
2023-01-26T14:57:38.179Z,1.42
2023-01-26T15:00:41.018Z,1.39
2023-01-26T15:03:43.887Z,1.50
2023-01-26T15:06:47.027Z,1.48
2023-01-26T15:09:53.273Z,1.41
2023-01-26T15:13:03.909Z,1.35
2023-01-26T15:16:15.436Z,1.34
2023-01-26T15:19:24.446Z,1.41
2023-01-26T15:22:28.111Z,1.31
2023-01-26T15:25:34.539Z,1.22
2023-01-26T15:28:39.796Z,1.32
2023-01-26T15:31:43.817Z,1.34
2023-01-26T15:34:46.687Z,1.33
2023-01-26T15:37:50.628Z,1.27
2023-01-26T15:40:53.424Z,1.23
2023-01-26T15:43:58.353Z,1.17
2023-01-26T15:47:01.209Z,1.06
2023-01-26T15:50:04.519Z,1.10
2023-01-26T15:53:07.380Z,1.17
2023-01-26T15:56:13.547Z,1.18
2023-01-26T15:59:17.839Z,1.15
2023-01-26T16:02:22.436Z,1.27
2023-01-26T16:05:26.200Z,1.27
2023-01-26T16:08:28.942Z,1.27
2023-01-26T16:11:35.823Z,1.33
2023-01-26T16:14:39.889Z,1.39
2023-01-26T16:17:42.662Z,1.42
2023-01-26T16:20:47.704Z,1.38
2023-01-26T16:23:50.896Z,1.29
2023-01-26T16:26:54.823Z,1.27
2023-01-26T16:29:59.107Z,1.35
2023-01-26T16:33:02.180Z,1.44
2023-01-26T16:36:05.352Z,1.35
2023-01-26T16:39:08.619Z,1.34
2023-01-26T16:42:16.195Z,1.31
2023-01-26T16:45:22.468Z,1.27
2023-01-26T16:48:25.344Z,1.14
2023-01-26T16:51:30.828Z,1.16
2023-01-26T16:54:33.965Z,1.12
2023-01-26T16:57:36.857Z,1.06
2023-01-26T17:00:41.800Z,1.07
2023-01-26T17:03:44.940Z,1.05
2023-01-26T17:06:47.845Z,1.13
2023-01-26T17:09:50.903Z,1.16
2023-01-26T17:12:53.727Z,1.12
2023-01-26T17:15:59.108Z,1.05
2023-01-26T17:19:02.071Z,1.00
2023-01-26T17:22:05.055Z,1.01
2023-01-26T17:25:08.554Z,0.88
2023-01-26T17:28:11.561Z,0.93
2023-01-26T17:31:18.498Z,0.90
2023-01-26T17:34:22.293Z,0.91
2023-01-26T17:37:29.167Z,0.98
2023-01-26T17:40:31.900Z,0.97
2023-01-26T17:43:34.886Z,0.98
2023-01-26T17:46:39.019Z,0.93
2023-01-26T17:49:41.735Z,0.95
2023-01-26T17:52:44.637Z,0.89
2023-01-26T17:55:47.525Z,0.94
2023-01-26T17:58:52.742Z,0.90
2023-01-26T18:01:57.568Z,0.88
2023-01-26T18:05:00.410Z,0.83
2023-01-26T18:08:03.386Z,0.71
2023-01-26T18:11:08.961Z,0.77
2023-01-26T18:14:12.014Z,0.70
2023-01-26T18:17:16.328Z,0.77
2023-01-26T18:20:19.288Z,0.74
2023-01-26T18:23:23.337Z,0.75
2023-01-26T18:26:29.089Z,0.83
2023-01-26T18:29:32.124Z,0.76
2023-01-26T18:32:37.043Z,0.70
2023-01-26T18:35:40.745Z,0.86
2023-01-26T18:38:45.708Z,0.84
2023-01-26T18:41:48.958Z,0.84
2023-01-26T18:44:51.792Z,0.95
2023-01-26T18:47:56.283Z,0.89
2023-01-26T18:50:59.722Z,0.83
2023-01-26T18:54:04.329Z,0.78
2023-01-26T18:57:07.295Z,0.78
2023-01-26T19:00:11.426Z,0.75
2023-01-26T19:03:17.557Z,0.76
2023-01-26T19:06:20.490Z,0.60
2023-01-26T19:09:24.272Z,0.64
2023-01-26T19:12:27.264Z,0.60
2023-01-26T19:15:31.081Z,0.60
2023-01-26T19:18:35.384Z,0.57
2023-01-26T19:21:38.193Z,0.60
2023-01-26T19:24:43.029Z,0.62
2023-01-26T19:27:46.007Z,0.55
2023-01-26T19:30:49.036Z,0.53
2023-01-26T19:33:54.508Z,0.63
2023-01-26T19:36:57.327Z,0.58
2023-01-26T19:40:00.252Z,0.64
2023-01-26T19:43:03.314Z,0.62
2023-01-26T19:46:08.423Z,0.50
2023-01-26T19:49:13.485Z,0.61
2023-01-26T19:52:16.390Z,0.47
2023-01-26T19:55:19.161Z,0.44
2023-01-26T19:58:22.057Z,0.51
2023-01-26T20:01:29.690Z,0.48
2023-01-26T20:04:34.064Z,0.45
2023-01-26T20:07:37.634Z,0.45
2023-01-26T20:10:40.577Z,0.51
2023-01-26T20:13:43.599Z,0.52
2023-01-26T20:16:46.513Z,0.41
2023-01-26T20:19:50.963Z,0.38
2023-01-26T20:22:54.119Z,0.39
2023-01-26T20:26:02.397Z,0.39
2023-01-26T20:29:05.982Z,0.34
2023-01-26T20:32:08.711Z,0.34
2023-01-26T20:35:14.970Z,0.30
2023-01-26T20:38:18.646Z,0.40
2023-01-26T20:41:24.615Z,0.30
2023-01-26T20:44:28.227Z,0.35
2023-01-26T20:47:33.969Z,0.34
2023-01-26T20:50:40.767Z,0.42
2023-01-26T20:53:44.197Z,0.42
2023-01-26T20:56:48.050Z,0.48
2023-01-26T20:59:51.050Z,0.49
2023-01-26T21:02:54.099Z,0.54
2023-01-26T21:05:58.452Z,0.42
2023-01-26T21:09:02.061Z,0.44
2023-01-26T21:12:05.251Z,0.39
2023-01-26T21:15:08.914Z,0.51
2023-01-26T21:18:12.338Z,0.38
2023-01-26T21:21:18.543Z,0.32
2023-01-26T21:24:21.533Z,0.32
2023-01-26T21:27:24.567Z,0.38
2023-01-26T21:30:28.474Z,0.42
2023-01-26T21:33:31.765Z,0.37
2023-01-26T21:36:36.579Z,0.39
2023-01-26T21:39:39.378Z,0.32
2023-01-26T21:42:42.115Z,0.26
2023-01-26T21:45:53.837Z,0.37
2023-01-26T21:48:57.265Z,0.38
2023-01-26T21:52:18.983Z,0.43
2023-01-26T21:55:22.038Z,0.35
2023-01-26T21:58:42.636Z,0.37
2023-01-26T22:01:47.209Z,0.47
2023-01-26T22:04:50.255Z,0.41
2023-01-26T22:07:54.676Z,0.40
2023-01-26T22:10:58.238Z,0.44
2023-01-26T22:14:00.964Z,0.42
2023-01-26T22:17:03.751Z,0.32
2023-01-26T22:20:07.734Z,0.31
2023-01-26T22:23:12.412Z,0.36
2023-01-26T22:26:17.649Z,0.40
2023-01-26T22:29:20.456Z,0.33
2023-01-26T22:32:23.232Z,0.38
2023-01-26T22:35:26.455Z,0.38
2023-01-26T22:38:31.365Z,0.39
2023-01-26T22:41:35.848Z,0.30
2023-01-26T22:44:38.734Z,0.33
2023-01-26T22:47:41.439Z,0.24
2023-01-26T22:50:46.454Z,0.27
2023-01-26T22:53:53.361Z,0.33
2023-01-26T22:56:56.764Z,0.36
2023-01-26T22:59:59.673Z,0.49
2023-01-26T23:03:02.762Z,0.50
2023-01-26T23:06:07.908Z,0.40
2023-01-26T23:09:12.098Z,0.40
2023-01-26T23:12:14.923Z,0.44
2023-01-26T23:15:17.980Z,0.36
2023-01-26T23:18:21.495Z,0.36
2023-01-26T23:21:24.635Z,0.32
2023-01-26T23:24:28.807Z,0.37
2023-01-26T23:27:31.590Z,0.39
2023-01-26T23:30:34.374Z,0.30
2023-01-26T23:33:38.538Z,0.26
2023-01-26T23:36:41.348Z,0.26
2023-01-26T23:39:46.418Z,0.32
2023-01-26T23:43:07.047Z,0.30
2023-01-26T23:46:13.466Z,0.31
2023-01-26T23:49:16.408Z,0.33
2023-01-26T23:52:19.404Z,0.29
2023-01-26T23:55:24.067Z,0.39
2023-01-26T23:58:27.438Z,0.39
